createdAt,value
2023-01-31T00:00:02.617Z,-1.60
2023-01-31T00:03:00.936Z,-1.60
2023-01-31T00:05:58.752Z,-1.50
2023-01-31T00:08:57.884Z,-1.50
2023-01-31T00:11:55.997Z,-1.40
2023-01-31T00:14:53.852Z,-1.40
2023-01-31T00:17:51.772Z,-1.40
2023-01-31T00:20:50.746Z,-1.20
2023-01-31T00:23:49.864Z,-1.00
2023-01-31T00:26:49.009Z,-0.90
2023-01-31T00:29:46.813Z,-0.70
2023-01-31T00:32:44.478Z,-0.60
2023-01-31T00:35:42.545Z,-0.50
2023-01-31T00:38:42.621Z,-0.50
2023-01-31T00:41:40.485Z,-0.40
2023-01-31T00:44:38.167Z,-0.40
2023-01-31T00:47:36.414Z,-0.40
2023-01-31T00:50:35.352Z,-0.30
2023-01-31T00:53:33.254Z,-0.30
2023-01-31T00:56:31.101Z,-0.40
2023-01-31T00:59:29.007Z,-0.60
2023-01-31T01:02:26.690Z,-0.80
2023-01-31T01:05:24.626Z,-0.90
2023-01-31T01:08:22.420Z,-0.90
2023-01-31T01:11:26.243Z,-1.00
2023-01-31T01:14:23.951Z,-1.00
2023-01-31T01:17:21.726Z,-1.10
2023-01-31T01:20:20.319Z,-1.10
2023-01-31T01:23:18.071Z,-1.20
2023-01-31T01:26:25.576Z,-1.20
2023-01-31T01:29:23.335Z,-1.20
2023-01-31T01:32:21.512Z,-1.20
2023-01-31T01:35:19.589Z,-1.20
2023-01-31T01:38:17.454Z,-1.10
2023-01-31T01:41:16.234Z,-1.10
2023-01-31T01:44:44.546Z,-1.10
2023-01-31T01:47:50.866Z,-1.00
2023-01-31T01:50:50.424Z,-1.10
2023-01-31T01:53:53.503Z,-1.10
2023-01-31T01:56:56.878Z,-1.00
2023-01-31T02:00:05.034Z,-0.90
2023-01-31T02:03:05.750Z,-0.70
2023-01-31T02:06:06.133Z,-0.60
2023-01-31T02:09:07.364Z,-0.40
2023-01-31T02:12:05.386Z,-0.30
2023-01-31T02:15:04.113Z,-0.20
2023-01-31T02:18:02.339Z,-0.10
2023-01-31T02:21:35.066Z,0.10
2023-01-31T02:25:03.600Z,0.20
2023-01-31T02:28:15.896Z,0.30
2023-01-31T02:31:41.686Z,0.30
2023-01-31T02:35:07.582Z,0.40
2023-01-31T02:38:41.181Z,0.40
2023-01-31T02:41:57.594Z,0.50
2023-01-31T02:45:14.543Z,0.60
2023-01-31T02:48:35.571Z,0.70
2023-01-31T02:51:42.923Z,0.70
2023-01-31T02:54:56.501Z,0.60
2023-01-31T02:57:57.750Z,0.60
2023-01-31T03:00:59.363Z,0.60
2023-01-31T03:04:00.805Z,0.50
2023-01-31T03:07:05.954Z,0.50
2023-01-31T03:10:25.859Z,0.60
2023-01-31T03:13:44.719Z,0.70
2023-01-31T03:17:08.596Z,0.70
2023-01-31T03:20:16.430Z,0.70
2023-01-31T03:23:20.262Z,0.80
2023-01-31T03:26:21.438Z,0.80
2023-01-31T03:29:19.949Z,0.90
2023-01-31T03:32:28.500Z,1.00
2023-01-31T03:35:30.275Z,1.20
2023-01-31T03:38:34.876Z,1.40
2023-01-31T03:41:51.381Z,1.70
2023-01-31T03:45:07.101Z,1.90
2023-01-31T03:48:10.666Z,2.20
2023-01-31T03:51:13.933Z,2.50
2023-01-31T03:54:18.685Z,2.80
2023-01-31T03:57:23.845Z,3.00
2023-01-31T04:00:24.505Z,3.20
2023-01-31T04:03:32.529Z,3.40
2023-01-31T04:06:30.823Z,3.50
2023-01-31T04:09:28.902Z,3.60
2023-01-31T04:12:26.894Z,3.70
2023-01-31T04:15:24.712Z,3.80
2023-01-31T04:18:23.658Z,3.90
2023-01-31T04:21:21.363Z,4.10
2023-01-31T04:24:19.357Z,4.30
2023-01-31T04:27:16.980Z,4.50
2023-01-31T04:30:15.146Z,4.70
2023-01-31T04:33:12.779Z,4.80
2023-01-31T04:36:11.241Z,4.90
2023-01-31T04:39:11.483Z,5.00
2023-01-31T04:42:09.544Z,5.00
2023-01-31T04:45:08.037Z,5.30
2023-01-31T04:48:06.303Z,5.40
2023-01-31T04:51:04.114Z,5.60
2023-01-31T04:54:02.615Z,5.90
2023-01-31T04:57:00.370Z,6.30
2023-01-31T04:59:58.122Z,6.50
2023-01-31T05:02:55.873Z,6.80
2023-01-31T05:05:53.928Z,6.90
2023-01-31T05:08:54.883Z,7.00
2023-01-31T05:11:52.739Z,7.30
2023-01-31T05:14:51.655Z,7.40
2023-01-31T05:18:04.707Z,7.50
2023-01-31T05:21:04.026Z,7.60
2023-01-31T05:24:02.113Z,7.70
2023-01-31T05:27:02.517Z,7.80
2023-01-31T05:30:01.415Z,7.70
2023-01-31T05:32:59.536Z,7.60
2023-01-31T05:35:57.630Z,7.60
2023-01-31T05:38:55.300Z,7.60
2023-01-31T05:41:53.659Z,7.40
2023-01-31T05:44:51.387Z,7.20
2023-01-31T05:47:49.510Z,7.20
2023-01-31T05:50:49.555Z,7.20
2023-01-31T05:53:49.421Z,7.40
2023-01-31T05:56:47.273Z,7.60
2023-01-31T05:59:48.550Z,7.60
2023-01-31T06:02:46.762Z,7.50
2023-01-31T06:05:44.586Z,7.70
2023-01-31T06:08:42.643Z,7.90
2023-01-31T06:11:40.494Z,7.90
2023-01-31T06:14:38.175Z,8.00
2023-01-31T06:17:36.482Z,8.00
2023-01-31T06:20:34.323Z,8.10
2023-01-31T06:23:32.350Z,8.10
2023-01-31T06:26:30.228Z,8.30
2023-01-31T06:29:28.704Z,8.30
2023-01-31T06:32:26.418Z,8.50
2023-01-31T06:35:24.458Z,8.70
2023-01-31T06:38:22.244Z,8.70
2023-01-31T06:41:20.744Z,8.80
2023-01-31T06:44:18.435Z,8.90
2023-01-31T06:47:16.285Z,9.00
2023-01-31T06:50:14.417Z,9.00
2023-01-31T06:53:12.166Z,9.10
2023-01-31T06:56:10.857Z,9.20
2023-01-31T06:59:08.581Z,9.30
2023-01-31T07:02:06.863Z,9.30
2023-01-31T07:05:05.005Z,9.10
2023-01-31T07:08:02.980Z,9.20
2023-01-31T07:11:02.529Z,9.30
2023-01-31T07:14:00.277Z,9.30
2023-01-31T07:16:58.351Z,9.40
2023-01-31T07:19:56.153Z,9.60
2023-01-31T07:22:57.031Z,9.70
2023-01-31T07:25:55.023Z,9.40
2023-01-31T07:28:53.886Z,9.50
2023-01-31T07:31:51.649Z,9.40
2023-01-31T07:34:50.122Z,9.30
2023-01-31T07:37:48.321Z,9.20
2023-01-31T07:40:46.078Z,8.80
2023-01-31T07:43:43.768Z,8.60
2023-01-31T07:46:42.170Z,8.50
2023-01-31T07:49:39.969Z,8.50
2023-01-31T07:52:37.840Z,8.60
2023-01-31T07:55:35.639Z,8.60
2023-01-31T07:58:36.582Z,8.70
2023-01-31T08:01:50.927Z,8.40
2023-01-31T08:04:49.963Z,8.30
2023-01-31T08:08:07.505Z,8.00
2023-01-31T08:11:05.866Z,8.00
2023-01-31T08:14:03.801Z,8.10
2023-01-31T08:17:01.719Z,8.10
2023-01-31T08:19:59.642Z,8.00
2023-01-31T08:23:00.348Z,7.80
2023-01-31T08:26:03.636Z,7.90
2023-01-31T08:29:01.499Z,7.80
2023-01-31T08:31:59.663Z,7.80
2023-01-31T08:34:57.570Z,7.50
2023-01-31T08:38:03.654Z,7.50
2023-01-31T08:41:01.718Z,7.50
2023-01-31T08:44:02.279Z,7.40
2023-01-31T08:47:03.161Z,7.20
2023-01-31T08:50:00.949Z,7.20
2023-01-31T08:53:01.535Z,7.00
2023-01-31T08:56:00.896Z,7.20
2023-01-31T08:58:59.298Z,7.00
2023-01-31T09:01:57.031Z,6.50
2023-01-31T09:04:54.989Z,6.40
2023-01-31T09:07:52.639Z,6.50
2023-01-31T09:10:53.614Z,6.40
2023-01-31T09:13:51.984Z,6.40
2023-01-31T09:16:49.806Z,6.30
2023-01-31T09:19:48.964Z,6.30
2023-01-31T09:22:46.909Z,6.10
2023-01-31T09:25:47.880Z,6.10
2023-01-31T09:28:46.145Z,6.00
2023-01-31T09:31:45.338Z,6.10
2023-01-31T09:34:43.297Z,6.00
2023-01-31T09:37:41.261Z,6.00
2023-01-31T09:40:41.562Z,5.90
2023-01-31T09:43:45.549Z,6.00
2023-01-31T09:46:52.480Z,6.00
2023-01-31T09:49:56.722Z,6.00
2023-01-31T09:52:54.998Z,6.00
2023-01-31T09:56:12.547Z,6.10
2023-01-31T09:59:23.203Z,5.90
2023-01-31T10:02:47.422Z,6.20
2023-01-31T10:05:58.655Z,6.30
2023-01-31T10:09:21.340Z,6.50
2023-01-31T10:12:25.799Z,6.40
2023-01-31T10:15:37.926Z,6.40
2023-01-31T10:18:43.044Z,6.40
2023-01-31T10:21:46.505Z,6.50
2023-01-31T10:24:50.147Z,6.50
2023-01-31T10:27:52.391Z,6.50
2023-01-31T10:31:02.052Z,6.60
2023-01-31T10:34:31.101Z,6.60
2023-01-31T10:37:40.498Z,6.40
2023-01-31T10:40:42.880Z,6.30
2023-01-31T10:44:01.206Z,6.20
2023-01-31T10:47:00.127Z,6.00
2023-01-31T10:49:58.069Z,6.00
2023-01-31T10:53:31.109Z,6.00
2023-01-31T10:56:39.863Z,5.90
2023-01-31T10:59:41.807Z,6.00
2023-01-31T11:02:40.121Z,6.00
2023-01-31T11:05:40.529Z,6.10
2023-01-31T11:08:47.640Z,5.80
2023-01-31T11:12:02.646Z,5.80
2023-01-31T11:15:18.473Z,5.70
2023-01-31T11:18:34.249Z,5.60
2023-01-31T11:21:35.128Z,5.50
2023-01-31T11:24:38.157Z,5.30
2023-01-31T11:27:42.989Z,5.20
2023-01-31T11:30:41.926Z,5.10
2023-01-31T11:33:42.382Z,4.90
2023-01-31T11:36:44.118Z,4.90
2023-01-31T11:39:42.147Z,4.80
2023-01-31T11:42:54.111Z,4.90
2023-01-31T11:46:01.418Z,4.70
2023-01-31T11:48:59.372Z,4.80
2023-01-31T11:52:00.984Z,4.70
2023-01-31T11:55:06.723Z,4.60
2023-01-31T11:58:17.347Z,4.50
2023-01-31T12:01:19.846Z,4.30
2023-01-31T12:04:32.218Z,4.20
2023-01-31T12:07:42.154Z,3.90
2023-01-31T12:10:46.096Z,3.70
2023-01-31T12:13:50.409Z,3.70
2023-01-31T12:16:50.824Z,3.50
2023-01-31T12:20:26.669Z,3.40
2023-01-31T12:23:38.627Z,3.30
2023-01-31T12:26:48.956Z,3.10
2023-01-31T12:30:12.658Z,2.90
2023-01-31T12:33:24.278Z,2.70
2023-01-31T12:36:47.739Z,2.50
2023-01-31T12:40:24.694Z,2.40
2023-01-31T12:43:47.860Z,2.30
2023-01-31T12:47:14.790Z,2.10
2023-01-31T12:50:23.548Z,2.10
2023-01-31T12:53:33.353Z,2.10
2023-01-31T12:56:51.059Z,2.00
2023-01-31T13:00:08.890Z,2.00
2023-01-31T13:03:31.562Z,2.00
2023-01-31T13:06:32.499Z,1.90
2023-01-31T13:09:34.097Z,2.00
2023-01-31T13:12:36.175Z,1.90
2023-01-31T13:15:49.921Z,1.90
2023-01-31T13:18:49.769Z,1.90
2023-01-31T13:21:51.504Z,1.90
2023-01-31T13:25:12.978Z,1.90
2023-01-31T13:28:27.640Z,1.90
2023-01-31T13:31:29.614Z,1.90
2023-01-31T13:34:41.355Z,1.90
2023-01-31T13:37:42.197Z,1.90
2023-01-31T13:40:53.559Z,1.90
2023-01-31T13:43:51.391Z,1.90
2023-01-31T13:46:58.898Z,1.80
2023-01-31T13:50:10.360Z,1.70
2023-01-31T13:53:15.303Z,1.60
2023-01-31T13:56:27.107Z,1.60
2023-01-31T13:59:33.306Z,1.50
2023-01-31T14:02:31.603Z,1.50
2023-01-31T14:06:00.760Z,1.50
2023-01-31T14:09:00.554Z,1.50
2023-01-31T14:12:00.616Z,1.50
2023-01-31T14:15:00.717Z,1.50
2023-01-31T14:18:01.268Z,1.50
2023-01-31T14:21:19.267Z,1.60
2023-01-31T14:24:41.227Z,1.60
2023-01-31T14:27:56.252Z,1.60
2023-01-31T14:30:55.075Z,1.60
2023-01-31T14:33:56.899Z,1.70
2023-01-31T14:37:21.444Z,1.50
2023-01-31T14:40:46.258Z,1.50
2023-01-31T14:44:05.138Z,1.30
2023-01-31T14:47:33.569Z,1.10
2023-01-31T14:50:58.138Z,1.10
2023-01-31T14:54:18.174Z,1.20
2023-01-31T14:57:22.797Z,1.10
2023-01-31T15:00:27.203Z,1.20
2023-01-31T15:03:31.406Z,1.20
2023-01-31T15:06:34.339Z,1.10
2023-01-31T15:09:41.092Z,1.10
2023-01-31T15:12:56.907Z,1.10
2023-01-31T15:15:56.620Z,1.20
2023-01-31T15:19:23.253Z,1.10
2023-01-31T15:22:23.338Z,0.90
2023-01-31T15:25:32.488Z,0.80
2023-01-31T15:28:35.820Z,0.80
2023-01-31T15:31:41.426Z,0.70
2023-01-31T15:34:50.171Z,0.70
2023-01-31T15:37:55.972Z,0.70
2023-01-31T15:41:30.406Z,0.60
2023-01-31T15:44:29.722Z,0.60
2023-01-31T15:47:28.383Z,0.60
2023-01-31T15:50:29.517Z,0.70
2023-01-31T15:53:32.952Z,0.70
2023-01-31T15:56:37.436Z,0.80
2023-01-31T15:59:35.834Z,0.90
2023-01-31T16:02:34.296Z,1.00
2023-01-31T16:05:36.143Z,1.00
2023-01-31T16:08:37.709Z,1.10
2023-01-31T16:11:40.414Z,1.10
2023-01-31T16:14:38.851Z,1.10
2023-01-31T16:17:38.021Z,1.10
2023-01-31T16:20:41.798Z,1.10
2023-01-31T16:23:40.521Z,1.00
2023-01-31T16:26:41.612Z,1.00
2023-01-31T16:29:44.748Z,1.00
2023-01-31T16:32:44.300Z,1.00
2023-01-31T16:35:43.831Z,1.00
2023-01-31T16:38:43.855Z,1.00
2023-01-31T16:41:54.253Z,1.10
2023-01-31T16:44:52.868Z,1.00
2023-01-31T16:47:53.325Z,1.00
2023-01-31T16:50:53.409Z,1.10
2023-01-31T16:54:15.410Z,1.10
2023-01-31T16:57:38.523Z,1.00
2023-01-31T17:00:37.133Z,1.00
2023-01-31T17:03:36.292Z,1.00
2023-01-31T17:06:34.859Z,1.00
2023-01-31T17:09:33.125Z,1.10
2023-01-31T17:12:35.189Z,0.90
2023-01-31T17:15:33.032Z,0.90
2023-01-31T17:18:31.636Z,0.70
2023-01-31T17:21:30.666Z,0.60
2023-01-31T17:24:31.580Z,0.50
2023-01-31T17:27:29.364Z,0.50
2023-01-31T17:30:30.624Z,0.60
2023-01-31T17:33:28.343Z,0.50
2023-01-31T17:36:26.201Z,0.60
2023-01-31T17:39:23.872Z,0.70
2023-01-31T17:42:22.488Z,0.70
2023-01-31T17:45:20.719Z,0.70
2023-01-31T17:48:26.365Z,0.80
2023-01-31T17:51:25.346Z,0.80
2023-01-31T17:54:23.568Z,0.80
2023-01-31T17:57:21.246Z,0.70
2023-01-31T18:00:20.343Z,0.70
2023-01-31T18:03:19.731Z,0.60
2023-01-31T18:06:17.629Z,0.60
2023-01-31T18:09:17.567Z,0.60
2023-01-31T18:12:15.818Z,0.80
2023-01-31T18:15:13.691Z,0.80
2023-01-31T18:18:11.554Z,0.90
2023-01-31T18:21:10.843Z,0.90
2023-01-31T18:24:11.050Z,1.00
2023-01-31T18:27:08.739Z,0.90
2023-01-31T18:30:07.836Z,1.00
2023-01-31T18:33:05.615Z,1.00
2023-01-31T18:36:03.945Z,1.00
2023-01-31T18:39:02.177Z,1.00
2023-01-31T18:42:00.244Z,1.00
2023-01-31T18:44:57.977Z,1.10
2023-01-31T18:47:55.911Z,1.10
2023-01-31T18:50:53.578Z,1.10
2023-01-31T18:53:51.380Z,1.20
2023-01-31T18:56:49.184Z,1.30
2023-01-31T18:59:47.276Z,1.50
2023-01-31T19:02:50.743Z,1.60
2023-01-31T19:05:48.247Z,1.60
2023-01-31T19:08:51.204Z,1.50
2023-01-31T19:11:49.082Z,1.50
2023-01-31T19:14:48.275Z,1.40
2023-01-31T19:17:46.171Z,1.40
2023-01-31T19:20:44.097Z,1.20
2023-01-31T19:23:42.337Z,1.20
2023-01-31T19:26:40.582Z,1.20
2023-01-31T19:29:39.929Z,1.20
2023-01-31T19:32:38.465Z,1.20
2023-01-31T19:35:38.182Z,1.20
2023-01-31T19:38:35.842Z,1.30
2023-01-31T19:41:34.256Z,1.30
2023-01-31T19:44:32.494Z,1.30
2023-01-31T19:47:30.458Z,1.20
2023-01-31T19:50:28.219Z,1.20
2023-01-31T19:53:27.637Z,1.10
2023-01-31T19:56:26.111Z,1.20
2023-01-31T19:59:23.964Z,1.10
2023-01-31T20:02:21.876Z,0.90
2023-01-31T20:05:20.023Z,0.90
2023-01-31T20:08:17.917Z,0.90
2023-01-31T20:11:15.697Z,0.90
2023-01-31T20:14:13.391Z,0.80
2023-01-31T20:17:11.199Z,0.70
2023-01-31T20:20:10.083Z,0.70
2023-01-31T20:23:09.576Z,0.70
2023-01-31T20:26:08.075Z,0.60
2023-01-31T20:29:05.998Z,0.60
2023-01-31T20:32:05.152Z,0.50
2023-01-31T20:35:03.043Z,0.50
2023-01-31T20:38:00.721Z,0.40
2023-01-31T20:40:58.748Z,0.40
2023-01-31T20:44:08.775Z,0.40
2023-01-31T20:47:07.260Z,0.30
2023-01-31T20:50:05.177Z,0.30
2023-01-31T20:53:03.131Z,0.30
2023-01-31T20:56:04.767Z,0.20
2023-01-31T20:59:03.783Z,0.20
2023-01-31T21:02:01.489Z,0.20
2023-01-31T21:04:59.934Z,0.10
2023-01-31T21:07:57.649Z,0.00
2023-01-31T21:10:57.612Z,-0.10
2023-01-31T21:13:55.291Z,-0.10
2023-01-31T21:16:53.031Z,-0.10
2023-01-31T21:19:51.330Z,-0.20
2023-01-31T21:22:49.126Z,-0.10
2023-01-31T21:25:46.873Z,-0.10
2023-01-31T21:28:44.735Z,-0.10
2023-01-31T21:31:42.464Z,-0.10
2023-01-31T21:34:41.013Z,-0.10
2023-01-31T21:37:38.887Z,-0.10
2023-01-31T21:40:36.683Z,-0.20
2023-01-31T21:43:34.486Z,-0.30
2023-01-31T21:46:32.337Z,-0.20
2023-01-31T21:49:30.029Z,-0.30
2023-01-31T21:52:27.840Z,-0.20
2023-01-31T21:55:25.531Z,-0.20
2023-01-31T21:58:23.404Z,-0.20
2023-01-31T22:01:24.786Z,-0.30
2023-01-31T22:04:23.847Z,-0.30
2023-01-31T22:07:21.550Z,-0.30
2023-01-31T22:10:19.461Z,-0.40
2023-01-31T22:13:17.392Z,-0.40
2023-01-31T22:16:17.016Z,-0.40
2023-01-31T22:19:15.557Z,-0.40
2023-01-31T22:22:13.300Z,-0.30
2023-01-31T22:25:11.103Z,-0.30
2023-01-31T22:28:08.894Z,-0.30
2023-01-31T22:31:08.549Z,-0.20
2023-01-31T22:34:07.800Z,-0.20
2023-01-31T22:37:05.477Z,-0.20
2023-01-31T22:40:03.285Z,-0.20
2023-01-31T22:43:01.078Z,-0.20
2023-01-31T22:46:00.018Z,-0.20
2023-01-31T22:48:58.776Z,-0.10
2023-01-31T22:51:56.538Z,-0.10
2023-01-31T22:54:54.216Z,-0.20
2023-01-31T22:57:52.133Z,-0.10
2023-01-31T23:00:49.933Z,-0.10
2023-01-31T23:03:48.435Z,-0.10
2023-01-31T23:06:46.143Z,-0.10
2023-01-31T23:09:43.886Z,-0.20
2023-01-31T23:12:42.993Z,-0.20
2023-01-31T23:15:40.912Z,-0.20
2023-01-31T23:18:38.526Z,-0.10
2023-01-31T23:21:36.451Z,-0.10
2023-01-31T23:24:36.384Z,-0.10
2023-01-31T23:27:34.420Z,-0.10
2023-01-31T23:30:32.344Z,-0.20
2023-01-31T23:33:30.149Z,-0.20
2023-01-31T23:36:29.126Z,-0.20
2023-01-31T23:39:27.056Z,-0.20
2023-01-31T23:42:25.089Z,-0.30
2023-01-31T23:45:22.859Z,-0.30
2023-01-31T23:48:20.639Z,-0.30
2023-01-31T23:51:18.479Z,-0.40
2023-01-31T23:54:16.240Z,-0.50
2023-01-31T23:57:14.003Z,-0.40
